Time;durP1;ratioP1;P1;durP2;ratioP2;P2;SDS_P1;SDS_P2;PMS_P1;PMS_P2;Temp;Humidity;BMP_temperature;BMP_pressure;BME280_temperature;BME280_humidity;BME280_pressure;Samples;Min_cycle;Max_cycle;Signal;HPM_P1;HPM_P2
2023/01/24 00:01:39;;;;;;;25.13;12.80;;;;;;;1.83;77.27;102714.41;10212749;29;20047;-76
2023/01/24 00:06:42;;;;;;;24.48;11.80;;;;;;;1.75;76.33;102710.03;10216757;29;20466;-75
2023/01/24 00:11:44;;;;;;;29.15;14.13;;;;;;;1.83;76.64;102711.75;10216181;29;20147;-78
2023/01/24 00:16:48;;;;;;;27.38;14.75;;;;;;;1.90;77.89;102700.22;10216325;29;20139;-77
2023/01/24 00:21:51;;;;;;;29.13;13.85;;;;;;;1.91;77.92;102709.91;10215712;29;20078;-77
2023/01/24 00:26:54;;;;;;;24.65;13.32;;;;;;;1.90;77.97;102708.16;10214451;29;20095;-76
2023/01/24 00:31:58;;;;;;;29.02;15.43;;;;;;;1.89;78.19;102710.81;10214194;29;20135;-75
2023/01/24 00:37:01;;;;;;;25.25;13.30;;;;;;;1.83;77.32;102708.22;10215302;29;20039;-78
2023/01/24 00:42:04;;;;;;;25.05;12.38;;;;;;;1.84;77.31;102694.97;10214824;29;20088;-76
2023/01/24 00:47:08;;;;;;;24.85;12.52;;;;;;;1.88;77.50;102709.94;10191970;29;20094;-76
2023/01/24 00:52:12;;;;;;;22.15;11.77;;;;;;;1.90;77.81;102707.28;10196004;29;20052;-76
2023/01/24 00:57:15;;;;;;;25.70;12.77;;;;;;;1.82;76.71;102693.22;10189629;29;20127;-77
2023/01/24 01:02:19;;;;;;;21.77;11.00;;;;;;;1.80;76.91;102698.53;10188063;29;20044;-77
2023/01/24 01:07:22;;;;;;;23.48;11.95;;;;;;;1.85;76.33;102701.16;10194784;29;20094;-77
2023/01/24 01:12:25;;;;;;;24.58;13.13;;;;;;;1.88;76.82;102706.41;10199377;29;20044;-77
2023/01/24 01:17:29;;;;;;;22.27;11.75;;;;;;;1.78;76.25;102700.28;10204835;29;20063;-77
2023/01/24 01:22:32;;;;;;;23.88;12.77;;;;;;;1.77;75.81;102700.31;10183485;29;20059;-77
2023/01/24 01:27:35;;;;;;;24.35;13.27;;;;;;;1.79;75.88;102706.50;10179260;29;20423;-77
2023/01/24 01:32:39;;;;;;;22.88;12.25;;;;;;;1.79;76.02;102704.72;10190565;29;20543;-77
2023/01/24 01:37:42;;;;;;;19.63;10.60;;;;;;;1.68;74.75;102706.56;10188792;29;20468;-77
2023/01/24 01:42:49;;;;;;;16.00;8.32;;;;;;;1.62;73.67;102704.84;10200221;29;20388;-76
2023/01/24 01:47:54;;;;;;;12.10;7.45;;;;;;;1.76;73.37;102699.44;10186647;29;20040;-76
2023/01/24 01:52:57;;;;;;;14.75;9.20;;;;;;;1.81;73.70;102702.94;10201766;29;20050;-76
2023/01/24 01:58:01;;;;;;;19.98;10.38;;;;;;;1.90;75.37;102704.66;10197738;29;20514;-77
2023/01/24 02:08:33;;;;;;;15.32;8.25;;;;;;;1.86;75.15;102702.88;10172769;29;20385;-76
2023/01/24 02:13:38;;;;;;;17.95;9.48;;;;;;;1.76;74.05;102690.63;10185605;29;20066;-76
2023/01/24 02:18:44;;;;;;;14.52;8.18;;;;;;;1.71;72.90;102686.22;10187904;29;20048;-77
2023/01/24 02:23:56;;;;;;;15.00;8.07;;;;;;;1.65;72.46;102682.75;10178741;29;20044;-76
2023/01/24 02:29:03;;;;;;;12.27;7.90;;;;;;;1.62;71.83;102677.44;10174853;29;20055;-76
2023/01/24 02:34:06;;;;;;;12.02;6.68;;;;;;;1.68;72.22;102685.38;10188449;29;20427;-76
2023/01/24 02:39:12;;;;;;;13.05;7.78;;;;;;;1.45;71.84;102682.84;10194638;29;20127;-76
2023/01/24 02:44:22;;;;;;;14.85;7.05;;;;;;;1.52;71.65;102686.38;10177128;29;20048;-76
2023/01/24 02:49:25;;;;;;;11.02;6.57;;;;;;;1.41;71.55;102686.44;10204217;29;20464;-76
2023/01/24 02:54:27;;;;;;;14.57;7.78;;;;;;;1.53;71.66;102677.53;10207361;29;20044;-76
2023/01/24 02:59:32;;;;;;;12.02;7.32;;;;;;;1.60;71.68;102680.13;10199584;29;20056;-76
2023/01/24 03:04:36;;;;;;;11.85;6.95;;;;;;;1.45;71.20;102664.31;10201552;29;20158;-76
2023/01/24 03:09:46;;;;;;;10.10;6.32;;;;;;;1.53;71.36;102675.75;10205084;29;20134;-76
2023/01/24 03:36:31;;;;;;;13.43;7.60;;;;;;;1.45;71.48;102664.31;10192743;29;20091;-76
2023/01/24 03:41:35;;;;;;;16.25;8.65;;;;;;;1.69;72.62;102661.50;10182555;29;20071;-76
2023/01/24 03:46:40;;;;;;;14.88;8.02;;;;;;;1.52;71.90;102667.81;10172688;29;20048;-76
2023/01/24 03:57:07;;;;;;;14.85;8.57;;;;;;;1.55;72.28;102668.66;10167273;29;20052;-76
2023/01/24 04:02:11;;;;;;;16.85;8.75;;;;;;;1.53;72.40;102664.28;10184983;29;20104;-76
2023/01/24 04:07:15;;;;;;;14.32;8.95;;;;;;;1.53;72.26;102662.50;10172096;29;20055;-76
2023/01/24 04:12:33;;;;;;;16.23;9.20;;;;;;;1.56;72.54;102670.41;10208163;23;20507;31
2023/01/24 04:17:38;;;;;;;14.90;9.23;;;;;;;1.68;73.09;102666.81;10083814;29;20041;-77
2023/01/24 04:22:44;;;;;;;15.70;8.43;;;;;;;1.66;73.58;102663.31;10054872;29;20080;-77
2023/01/24 04:27:48;;;;;;;16.13;9.10;;;;;;;1.62;73.62;102669.50;10054244;29;20062;-75
2023/01/24 04:32:59;;;;;;;14.43;8.80;;;;;;;1.58;72.58;102673.94;10062322;29;20057;-76
2023/01/24 04:38:03;;;;;;;15.13;8.77;;;;;;;1.63;73.31;102668.63;10087865;29;20042;-75
2023/01/24 04:43:38;;;;;;;15.35;8.68;;;;;;;1.64;73.42;102673.91;10067932;29;20111;-75
2023/01/24 04:48:43;;;;;;;14.07;7.93;;;;;;;1.43;72.62;102663.47;10060895;29;20065;-77
2023/01/24 04:53:46;;;;;;;15.63;9.23;;;;;;;1.49;72.47;102648.41;10067043;29;20505;-77
2023/01/24 04:58:51;;;;;;;14.25;8.80;;;;;;;1.50;72.96;102651.94;10062339;29;20481;-77
2023/01/24 05:03:58;;;;;;;16.20;9.95;;;;;;;1.54;73.38;102668.66;10069415;29;20056;-77
2023/01/24 05:09:03;;;;;;;16.33;9.35;;;;;;;1.52;73.02;102668.69;10060803;29;20057;-75
2023/01/24 05:14:19;;;;;;;15.55;9.18;;;;;;;1.43;72.83;102674.94;10060787;29;20054;-76
2023/01/24 05:19:23;;;;;;;17.08;9.30;;;;;;;1.45;72.77;102673.16;10075136;29;20057;-77
2023/01/24 05:24:26;;;;;;;16.80;8.77;;;;;;;1.47;72.69;102678.44;10065871;29;20042;-79
2023/01/24 05:29:29;;;;;;;18.27;10.05;;;;;;;1.44;73.23;102675.81;10059895;29;20172;-76
2023/01/24 05:34:36;;;;;;;13.82;9.15;;;;;;;1.46;73.57;102682.88;10060539;29;20501;-75
2023/01/24 05:39:41;;;;;;;18.52;10.32;;;;;;;1.53;74.14;102686.34;10060771;29;20084;-78
2023/01/24 05:44:44;;;;;;;14.95;9.05;;;;;;;1.44;73.22;102687.28;10060702;29;20049;-79
2023/01/24 05:49:50;;;;;;;17.48;9.15;;;;;;;1.48;73.80;102683.75;10058982;29;20152;-75
2023/01/24 05:54:53;;;;;;;16.30;9.77;;;;;;;1.54;74.27;102687.22;10056051;29;20132;-76
2023/01/24 06:00:15;;;;;;;13.45;8.48;;;;;;;1.50;73.54;102692.53;10058019;29;20220;-78
2023/01/24 06:05:27;;;;;;;18.85;9.27;;;;;;;1.45;72.98;102709.34;10057704;29;20045;-76
2023/01/24 06:10:30;;;;;;;14.77;8.82;;;;;;;1.47;74.01;102702.28;10059421;29;20109;-77
2023/01/24 06:15:40;;;;;;;15.70;8.35;;;;;;;1.46;73.50;102712.00;10058055;29;20501;-78
2023/01/24 06:20:47;;;;;;;15.48;9.52;;;;;;;1.18;72.31;102715.66;10043558;29;20505;-78
2023/01/24 06:25:51;;;;;;;14.30;8.57;;;;;;;1.32;72.33;102724.47;10058838;29;20516;-75
2023/01/24 06:31:05;;;;;;;17.95;10.13;;;;;;;1.22;72.36;102730.69;10058272;29;20046;-77
2023/01/24 06:36:19;;;;;;;16.60;9.50;;;;;;;1.20;72.44;102724.50;10058203;29;20058;-76
2023/01/24 06:41:23;;;;;;;17.20;10.40;;;;;;;1.34;72.95;102722.66;10058359;29;20149;-78
2023/01/24 06:46:26;;;;;;;17.45;9.98;;;;;;;1.39;73.58;102728.81;10060777;29;20057;-77
2023/01/24 06:51:30;;;;;;;17.15;10.48;;;;;;;1.54;74.85;102732.25;10056523;29;20065;-77
2023/01/24 06:56:33;;;;;;;18.30;10.20;;;;;;;1.55;74.94;102740.22;10057296;29;20101;-77
2023/01/24 07:01:36;;;;;;;17.20;10.57;;;;;;;1.53;75.06;102749.06;10057224;29;20136;-78
2023/01/24 07:06:40;;;;;;;15.35;9.60;;;;;;;1.53;75.11;102743.75;10057284;29;20053;-77
2023/01/24 07:11:43;;;;;;;18.17;10.18;;;;;;;1.48;74.60;102749.97;10056826;29;20060;-77
2023/01/24 07:16:45;;;;;;;20.00;10.52;;;;;;;1.47;74.18;102749.97;10056642;29;20049;-77
2023/01/24 07:21:52;;;;;;;18.65;10.43;;;;;;;1.32;73.52;102747.38;10055897;29;20531;-77
2023/01/24 07:26:56;;;;;;;16.98;10.50;;;;;;;1.31;73.44;102746.50;10056212;29;20046;-77
2023/01/24 07:31:59;;;;;;;16.17;9.48;;;;;;;1.31;73.19;102751.81;10056712;29;20512;-77
2023/01/24 07:37:03;;;;;;;13.38;7.88;;;;;;;1.15;72.08;102758.97;10055626;29;20052;-77
2023/01/24 07:42:06;;;;;;;15.15;8.55;;;;;;;1.32;72.42;102763.28;10053291;29;20077;-77
2023/01/24 07:47:09;;;;;;;16.63;8.75;;;;;;;1.18;72.27;102764.25;10053795;29;20132;-77
2023/01/24 07:52:13;;;;;;;13.13;7.97;;;;;;;1.36;72.09;102765.03;10055496;29;20152;-76
2023/01/24 07:57:16;;;;;;;12.43;7.43;;;;;;;1.40;72.53;102772.97;10054868;29;20045;-77
2023/01/24 08:02:19;;;;;;;11.75;6.40;;;;;;;1.34;72.06;102766.81;10054873;29;20098;-77
2023/01/24 08:07:23;;;;;;;16.25;8.85;;;;;;;1.65;73.01;102775.50;10054623;29;20049;-77
2023/01/24 08:12:26;;;;;;;8.32;5.65;;;;;;;1.83;71.03;102775.34;10062809;29;20070;-77
2023/01/24 08:17:29;;;;;;;7.40;4.80;;;;;;;1.93;69.89;102777.06;10063052;29;20065;-77
2023/01/24 08:22:33;;;;;;;6.80;4.63;;;;;;;2.16;70.60;102783.97;10039875;29;20149;-76
2023/01/24 08:27:41;;;;;;;7.90;5.45;;;;;;;2.16;69.81;102784.84;10026746;29;20053;-75
2023/01/24 08:32:44;;;;;;;11.27;5.78;;;;;;;2.03;69.46;102782.28;10020886;29;20065;-77
2023/01/24 08:37:48;;;;;;;9.55;6.25;;;;;;;1.99;70.72;102792.06;10024120;29;20073;-74
2023/01/24 08:42:51;;;;;;;8.07;5.50;;;;;;;1.67;69.38;102795.81;10024408;29;20137;-77
2023/01/24 08:47:54;;;;;;;9.25;5.78;;;;;;;1.49;69.87;102799.41;10022051;29;20050;-76
2023/01/24 08:52:58;;;;;;;11.15;5.95;;;;;;;1.68;70.22;102809.94;10024032;29;20445;-74
2023/01/24 08:58:03;;;;;;;10.25;6.20;;;;;;;1.52;69.73;102808.25;10022163;29;20053;-75
2023/01/24 09:03:05;;;;;;;11.50;6.43;;;;;;;1.77;70.63;102807.22;10023759;29;20102;-75
2023/01/24 09:08:10;;;;;;;9.80;6.95;;;;;;;1.73;69.92;102816.97;10024138;29;20617;-75
2023/01/24 09:13:13;;;;;;;8.35;5.88;;;;;;;1.75;69.83;102824.88;10022314;29;20086;-77
2023/01/24 09:18:16;;;;;;;11.15;6.95;;;;;;;1.83;70.40;102819.53;10021183;29;20054;-77
2023/01/24 09:23:20;;;;;;;8.73;6.15;;;;;;;1.80;69.40;102814.28;10022119;29;20087;-75
2023/01/24 09:28:23;;;;;;;9.32;6.00;;;;;;;1.87;69.54;102821.31;10023213;29;20813;-76
2023/01/24 09:33:26;;;;;;;11.15;6.95;;;;;;;1.88;69.20;102812.47;10022647;29;20678;-76
2023/01/24 09:38:32;;;;;;;8.95;5.93;;;;;;;1.97;69.67;102822.13;10022580;29;21571;-76
2023/01/24 09:43:43;;;;;;;9.93;5.30;;;;;;;1.90;68.41;102824.81;10020430;29;20524;-76
2023/01/24 09:48:48;;;;;;;9.90;5.72;;;;;;;1.88;68.46;102823.94;10022632;29;20053;-76
2023/01/24 09:53:55;;;;;;;9.30;5.05;;;;;;;2.04;68.87;102827.38;10021057;29;20052;-76
2023/01/24 09:59:10;;;;;;;5.63;4.57;;;;;;;2.12;68.00;102820.25;10022876;29;20061;-76
2023/01/24 10:04:17;;;;;;;6.68;4.63;;;;;;;2.22;69.19;102829.00;10020112;29;20105;-76
2023/01/24 10:09:32;;;;;;;6.53;4.70;;;;;;;2.08;67.15;102823.78;10021764;29;20057;-75
2023/01/24 10:14:48;;;;;;;7.10;4.80;;;;;;;2.18;67.59;102822.84;10022945;29;20076;-75
2023/01/24 10:20:15;;;;;;;6.68;4.32;;;;;;;2.26;67.45;102817.50;10021811;29;20049;-75
2023/01/24 10:25:25;;;;;;;9.02;5.68;;;;;;;2.22;66.59;102817.53;10035905;29;20045;-76
2023/01/24 10:30:41;;;;;;;7.03;4.75;;;;;;;2.20;66.67;102822.84;10029724;29;20046;-76
2023/01/24 10:35:55;;;;;;;7.40;4.90;;;;;;;2.13;66.62;102819.34;10021234;29;20055;-76
2023/01/24 10:41:15;;;;;;;7.35;4.75;;;;;;;2.18;66.90;102809.59;10015880;29;20053;-77
2023/01/24 10:46:45;;;;;;;7.82;4.90;;;;;;;2.20;66.54;102803.41;10018993;29;20053;-75
2023/01/24 10:52:14;;;;;;;7.15;5.00;;;;;;;2.31;66.85;102794.47;10012461;29;20424;-75
2023/01/24 10:57:31;;;;;;;8.20;5.35;;;;;;;2.35;66.16;102796.19;10018119;29;20057;-76
2023/01/24 11:02:34;;;;;;;7.30;4.75;;;;;;;2.28;66.10;102789.19;10020522;29;20532;-76
2023/01/24 11:07:38;;;;;;;7.75;4.88;;;;;;;2.33;66.46;102790.03;10018748;29;20055;-76
2023/01/24 11:12:53;;;;;;;7.07;4.80;;;;;;;2.28;66.16;102798.94;10021588;29;20425;-76
2023/01/24 11:18:00;;;;;;;6.43;4.60;;;;;;;2.29;66.19;102790.06;10018213;29;20053;-75
2023/01/24 11:23:05;;;;;;;6.93;5.10;;;;;;;2.38;66.44;102800.59;10018363;29;20050;-74
2023/01/24 11:28:24;;;;;;;8.95;5.43;;;;;;;2.33;66.37;102790.03;10018223;29;20049;-74
2023/01/24 11:33:52;;;;;;;6.25;4.68;;;;;;;2.42;66.12;102778.47;10015340;29;20068;-76
2023/01/24 11:38:57;;;;;;;7.45;4.85;;;;;;;2.50;66.42;102775.75;10017887;29;20626;-76
2023/01/24 11:44:39;;;;;;;6.78;4.75;;;;;;;2.50;65.92;102775.75;10017000;29;20460;-76
2023/01/24 11:50:00;;;;;;;9.43;4.95;;;;;;;2.57;66.48;102762.41;10015429;29;20046;-76
2023/01/24 11:55:13;;;;;;;8.38;5.80;;;;;;;2.55;66.16;102755.38;10016922;29;20097;-76
2023/01/24 12:00:31;;;;;;;10.07;6.60;;;;;;;2.44;65.71;102752.81;10016924;29;20045;-76
2023/01/24 12:05:49;;;;;;;13.32;7.75;;;;;;;2.55;66.31;102752.72;10016709;29;20067;-75
2023/01/24 12:11:02;;;;;;;17.20;8.90;;;;;;;2.53;66.19;102750.09;10015905;29;20402;-75
2023/01/24 12:16:42;;;;;;;9.32;6.20;;;;;;;2.51;66.37;102751.84;10018969;29;20053;-76
2023/01/24 12:21:45;;;;;;;10.27;6.47;;;;;;;2.38;65.46;102742.22;10016804;29;21232;-77
2023/01/24 12:26:51;;;;;;;10.73;7.70;;;;;;;2.20;65.53;102735.34;10017559;29;20041;-75
2023/01/24 12:32:00;;;;;;;15.32;8.75;;;;;;;2.33;65.99;102729.03;10014350;29;20060;-76
2023/01/24 12:37:11;;;;;;;13.60;7.43;;;;;;;2.21;65.81;102720.28;10012465;29;20141;-76
2023/01/24 12:42:19;;;;;;;11.03;7.47;;;;;;;2.25;65.99;102716.69;10015758;29;20045;-76
2023/01/24 12:47:31;;;;;;;12.10;7.68;;;;;;;2.35;66.13;102718.38;10007199;29;20045;-76
2023/01/24 12:52:43;;;;;;;10.75;7.18;;;;;;;2.43;66.15;102705.91;10015400;29;20433;-76
2023/01/24 12:57:51;;;;;;;9.30;6.40;;;;;;;2.46;65.81;102703.22;10018740;29;20505;-77
2023/01/24 13:03:25;;;;;;;11.68;8.07;;;;;;;2.26;65.66;102698.13;10023019;29;20073;-76
2023/01/24 13:08:42;;;;;;;20.80;11.00;;;;;;;2.14;66.19;102699.13;10022301;29;20094;-75
2023/01/24 13:13:50;;;;;;;16.15;9.88;;;;;;;2.18;65.64;102695.53;10023399;29;20603;-77
2023/01/24 13:18:59;;;;;;;18.15;10.75;;;;;;;2.09;65.55;102693.00;10021076;29;20101;-75
2023/01/24 13:24:32;;;;;;;19.17;12.10;;;;;;;1.92;65.85;102709.03;10020658;29;20054;-75
2023/01/24 13:29:47;;;;;;;;;;;;;;;1.90;66.10;102705.50;10022545;29;20061;-75
2023/01/24 13:34:53;;;;;;;19.42;10.88;;;;;;;2.09;66.38;102708.91;10024720;29;19928;-75
2023/01/24 13:40:05;;;;;;;19.35;11.00;;;;;;;2.08;66.29;102701.81;10022212;29;20053;-74
2023/01/24 13:45:45;;;;;;;19.00;11.38;;;;;;;2.12;66.39;102702.69;10022723;29;20057;-75
2023/01/24 13:51:38;;;;;;;18.55;11.07;;;;;;;2.09;66.30;102698.28;10021887;29;20085;-76
2023/01/24 13:57:27;;;;;;;20.50;11.50;;;;;;;2.08;66.50;102704.47;10007237;29;20061;-75
2023/01/24 14:02:33;;;;;;;21.95;11.63;;;;;;;2.13;66.41;102707.09;10019377;29;20057;-76
2023/01/24 14:07:40;;;;;;;16.40;10.07;;;;;;;2.04;66.54;102720.44;10018827;29;20076;-76
2023/01/24 14:12:54;;;;;;;21.27;12.57;;;;;;;1.91;66.30;102728.47;10021356;29;20049;-76
2023/01/24 14:17:58;;;;;;;21.35;12.73;;;;;;;1.68;66.46;102727.78;10015991;29;20132;-76
2023/01/24 14:23:06;;;;;;;19.75;11.73;;;;;;;1.81;66.80;102733.84;10020539;29;20084;-76
2023/01/24 14:28:23;;;;;;;24.65;12.55;;;;;;;1.81;67.30;102732.09;10021571;29;20109;-76
2023/01/24 14:33:37;;;;;;;17.85;11.30;;;;;;;1.76;66.87;102725.94;10021511;29;20576;-75
2023/01/24 14:38:42;;;;;;;17.83;10.70;;;;;;;1.66;67.11;102730.41;10017908;29;20060;-76
2023/01/24 14:43:44;;;;;;;20.73;12.35;;;;;;;1.65;67.23;102738.41;10021489;29;20053;-75
2023/01/24 14:48:47;;;;;;;24.08;12.73;;;;;;;1.47;67.15;102742.91;10019118;29;20057;-76
2023/01/24 14:53:54;;;;;;;23.58;13.48;;;;;;;1.43;67.51;102738.50;10017199;29;20072;-76
2023/01/24 14:59:10;;;;;;;24.27;13.43;;;;;;;1.52;67.65;102724.34;10018355;29;20049;-77
2023/01/24 15:04:24;;;;;;;22.75;12.60;;;;;;;1.39;67.96;102726.16;10016006;29;20045;-74
2023/01/24 15:09:28;;;;;;;26.55;12.73;;;;;;;1.53;67.79;102727.84;10017532;29;21305;-75
2023/01/24 15:14:31;;;;;;;23.63;13.27;;;;;;;1.48;68.09;102733.16;10020823;29;21193;-75
2023/01/24 15:19:34;;;;;;;22.48;13.68;;;;;;;1.54;68.05;102719.91;10015181;29;20130;-76
2023/01/24 15:24:39;;;;;;;27.45;14.15;;;;;;;1.54;67.91;102724.31;10016425;29;20081;-76
2023/01/24 15:29:44;;;;;;;24.65;12.82;;;;;;;1.38;68.39;102723.53;10017450;29;20118;-76
2023/01/24 15:34:47;;;;;;;27.08;15.13;;;;;;;1.41;68.58;102712.91;10018383;29;20045;-76
2023/01/24 15:39:57;;;;;;;25.58;14.98;;;;;;;1.35;68.45;102708.53;10014563;29;20100;-75
2023/01/24 15:45:01;;;;;;;25.40;14.00;;;;;;;1.33;68.47;102706.78;10018056;29;20179;-74
2023/01/24 15:55:38;;;;;;;30.98;16.88;;;;;;;1.28;68.22;102706.81;10016549;29;20049;-75
2023/01/24 16:00:51;;;;;;;28.50;15.80;;;;;;;1.27;68.30;102710.34;10014632;29;20199;-74
2023/01/24 16:05:54;;;;;;;28.70;14.07;;;;;;;1.31;68.49;102712.06;10016148;29;20055;-75
2023/01/24 16:10:59;;;;;;;26.73;14.40;;;;;;;1.17;68.40;102704.22;10017885;29;20053;-73
2023/01/24 16:16:05;;;;;;;29.35;15.07;;;;;;;1.34;68.54;102712.06;9979443;29;1164840;-76
2023/01/24 16:21:09;;;;;;;28.10;15.52;;;;;;;0.97;68.36;102706.94;10022218;29;20053;-74
2023/01/24 16:26:22;;;;;;;28.15;14.52;;;;;;;1.10;68.09;102706.88;10008621;29;20053;-75
2023/01/24 16:31:24;;;;;;;;;;;;;;;1.13;68.30;102714.84;10019058;29;20053;-74
2023/01/24 16:36:27;;;;;;;26.85;15.05;;;;;;;1.06;68.17;102713.97;10025845;29;19960;-76
2023/01/24 16:41:32;;;;;;;25.95;14.27;;;;;;;1.14;68.17;102716.59;10024551;29;20045;-76
2023/01/24 16:46:35;;;;;;;41.33;19.77;;;;;;;1.15;67.91;102710.41;10023431;29;20049;-74
2023/01/24 16:51:38;;;;;;;28.27;16.42;;;;;;;1.18;67.94;102707.72;10023801;29;20045;-76
2023/01/24 16:56:44;;;;;;;28.75;15.80;;;;;;;1.21;67.98;102702.44;10021888;29;20057;-75
2023/01/24 17:01:47;;;;;;;27.08;14.73;;;;;;;1.20;68.16;102709.47;10024274;29;20196;-75
2023/01/24 17:06:50;;;;;;;31.65;15.55;;;;;;;1.14;67.85;102706.88;10023257;29;20053;-75
2023/01/24 17:11:54;;;;;;;29.38;14.52;;;;;;;1.09;67.52;102713.94;10026334;29;20109;-75
2023/01/24 17:17:15;;;;;;;28.08;15.75;;;;;;;1.08;67.78;102706.91;10020121;29;20064;-75
2023/01/24 17:22:18;;;;;;;28.67;15.07;;;;;;;1.08;68.06;102703.38;10024947;29;20045;-74
2023/01/24 17:27:22;;;;;;;26.55;14.07;;;;;;;1.07;67.98;102702.50;10022082;29;20052;-74
2023/01/24 17:32:25;;;;;;;24.23;14.13;;;;;;;1.09;68.13;102700.72;10019722;29;20057;-75
2023/01/24 17:37:28;;;;;;;29.58;17.35;;;;;;;1.03;67.42;102708.69;10021570;29;20053;-73
2023/01/24 17:42:32;;;;;;;17.90;12.23;;;;;;;0.88;66.75;102699.06;10021064;29;21298;-75
2023/01/24 17:47:35;;;;;;;19.70;10.73;;;;;;;0.93;65.97;102689.31;10021739;29;20061;-75
2023/01/24 17:52:37;;;;;;;18.83;10.98;;;;;;;0.95;66.35;102700.78;10021426;29;20530;-75
2023/01/24 17:57:42;;;;;;;15.35;9.80;;;;;;;0.82;66.49;102699.06;10023718;29;20085;-74
2023/01/24 18:02:46;;;;;;;17.00;11.52;;;;;;;0.77;66.85;102692.94;10018652;29;20064;-75
2023/01/24 18:07:49;;;;;;;16.70;10.95;;;;;;;0.74;66.49;102698.19;10023807;29;20045;-75
2023/01/24 18:12:53;;;;;;;15.82;10.73;;;;;;;0.84;66.39;102703.47;10021570;29;20068;-74
2023/01/24 18:17:56;;;;;;;16.23;10.77;;;;;;;0.81;66.07;102700.81;10016621;29;20057;-73
2023/01/24 18:22:59;;;;;;;17.80;11.95;;;;;;;0.83;66.31;102698.19;10021624;29;20064;-74
2023/01/24 18:28:05;;;;;;;16.10;10.32;;;;;;;0.70;66.31;102693.81;10017849;29;20095;-75
2023/01/24 18:33:08;;;;;;;13.95;10.27;;;;;;;0.65;66.26;102688.53;10021565;29;20069;-74
2023/01/24 18:38:13;;;;;;;15.13;10.65;;;;;;;0.68;66.60;102685.88;10028050;29;20056;-74
2023/01/24 18:43:23;;;;;;;14.85;10.90;;;;;;;0.74;66.66;102679.69;10025516;29;20045;-73
2023/01/24 18:48:26;;;;;;;18.98;12.30;;;;;;;0.75;66.70;102679.69;10021364;29;20063;-75
2023/01/24 18:53:28;;;;;;;16.77;11.68;;;;;;;0.69;66.69;102674.41;10021288;29;20094;-74
2023/01/24 18:58:35;;;;;;;18.42;11.70;;;;;;;0.63;66.50;102676.19;10022054;29;20058;-75
2023/01/24 19:03:38;;;;;;;17.98;12.10;;;;;;;0.63;66.29;102678.84;10022265;29;20057;-74
2023/01/24 19:08:41;;;;;;;17.25;12.02;;;;;;;0.54;66.58;102680.63;10017325;29;20045;-74
2023/01/24 19:14:06;;;;;;;22.77;14.10;;;;;;;0.48;66.71;102693.00;10020650;29;20057;-74
2023/01/24 19:19:12;;;;;;;17.33;11.32;;;;;;;0.54;66.36;102683.25;10020882;29;20051;-74
2023/01/24 19:24:15;;;;;;;15.38;10.90;;;;;;;0.59;66.31;102684.13;10021337;29;20057;-74
2023/01/24 19:29:19;;;;;;;16.58;10.60;;;;;;;0.42;66.66;102688.59;10021471;29;20049;-74
2023/01/24 19:34:22;;;;;;;17.25;12.05;;;;;;;0.54;66.56;102700.91;10021568;29;20056;-73
2023/01/24 19:39:25;;;;;;;16.77;11.90;;;;;;;0.52;67.01;102694.72;10017250;29;21212;-75
2023/01/24 19:44:29;;;;;;;16.70;11.20;;;;;;;0.52;66.95;102695.63;10019508;29;20045;-75
2023/01/24 19:49:32;;;;;;;15.60;11.45;;;;;;;0.50;66.86;102704.47;10020221;29;20140;-73
2023/01/24 19:54:35;;;;;;;17.17;11.95;;;;;;;0.44;66.98;102712.38;10020520;29;20049;-75
2023/01/24 19:59:39;;;;;;;16.83;11.35;;;;;;;0.53;66.75;102709.75;10020941;29;20076;-75
2023/01/24 20:04:42;;;;;;;19.17;12.43;;;;;;;0.47;67.16;102708.00;10017398;29;21286;-75
2023/01/24 20:09:53;;;;;;;18.40;11.95;;;;;;;0.54;67.09;102701.78;10027432;29;20128;-74
2023/01/24 20:14:57;;;;;;;17.08;11.02;;;;;;;0.27;66.67;102705.34;10026094;29;20077;-74
2023/01/24 20:20:00;;;;;;;15.05;10.32;;;;;;;0.48;66.33;102707.09;10023162;29;20053;-74
2023/01/24 20:25:04;;;;;;;17.98;11.52;;;;;;;0.50;66.45;102702.69;10030435;29;20056;-74
2023/01/24 20:30:21;;;;;;;16.70;10.80;;;;;;;0.55;66.52;102710.59;10025807;29;20068;-75
2023/01/24 20:35:24;;;;;;;15.05;10.88;;;;;;;0.56;66.50;102704.44;10021337;29;20057;-73
2023/01/24 20:40:28;;;;;;;17.52;11.73;;;;;;;0.53;66.76;102715.91;10022846;29;20462;-76
2023/01/24 20:45:35;;;;;;;23.40;14.60;;;;;;;0.45;67.04;102701.81;10021387;29;20087;-74
2023/01/24 20:50:38;;;;;;;30.42;17.35;;;;;;;0.43;67.17;102705.34;10020218;29;20494;-75
2023/01/24 20:55:41;;;;;;;22.85;13.98;;;;;;;0.49;66.87;102705.31;10022336;29;20048;-75
2023/01/24 21:00:45;;;;;;;19.45;12.68;;;;;;;0.51;66.91;102696.50;10020271;29;20064;-76
2023/01/24 21:05:48;;;;;;;21.05;12.93;;;;;;;0.50;66.95;102697.41;10023068;29;20140;-75
2023/01/24 21:10:51;;;;;;;21.35;13.73;;;;;;;0.59;66.45;102691.19;10019957;29;20483;-75
2023/01/24 21:15:55;;;;;;;22.65;13.60;;;;;;;0.65;66.53;102688.53;10021463;29;20060;-75
2023/01/24 21:20:58;;;;;;;18.17;12.23;;;;;;;0.61;66.43;102678.84;10020963;29;20069;-75
2023/01/24 21:26:04;;;;;;;19.48;12.80;;;;;;;0.54;66.45;102679.75;10018102;29;20361;-76
2023/01/24 21:31:12;;;;;;;20.27;13.60;;;;;;;0.55;66.61;102679.75;10022405;29;20045;-76
2023/01/24 21:36:17;;;;;;;21.83;12.63;;;;;;;0.51;67.04;102675.34;10020089;29;20050;-76
2023/01/24 21:46:44;;;;;;;20.25;12.93;;;;;;;0.59;66.67;102672.69;10019954;29;20056;-75
2023/01/24 21:51:48;;;;;;;26.45;15.15;;;;;;;0.49;66.88;102671.81;10021184;29;20042;-74
2023/01/24 22:02:32;;;;;;;28.23;14.70;;;;;;;0.42;67.57;102664.81;10058516;29;20137;-74
2023/01/24 22:07:35;;;;;;;26.13;14.50;;;;;;;0.52;67.48;102674.47;10058434;29;20038;-76
2023/01/24 22:12:38;;;;;;;22.67;14.57;;;;;;;0.54;67.49;102672.69;10058070;29;20126;-74
2023/01/24 22:17:43;;;;;;;23.35;14.60;;;;;;;0.61;68.03;102660.34;10057938;29;20053;-75
2023/01/24 22:23:07;;;;;;;23.25;13.10;;;;;;;0.61;67.41;102662.97;10057655;29;20078;-74
2023/01/24 22:28:16;;;;;;;24.88;14.68;;;;;;;0.75;67.30;102655.88;10057186;29;20085;-75
2023/01/24 22:33:20;;;;;;;26.02;14.75;;;;;;;0.75;67.26;102647.06;10057877;29;20475;-75
2023/01/24 22:38:25;;;;;;;25.10;15.38;;;;;;;0.78;67.08;102647.91;10057250;29;20045;-75
2023/01/24 22:43:28;;;;;;;25.10;13.75;;;;;;;0.75;67.16;102644.41;10057392;29;20510;-75
2023/01/24 22:48:32;;;;;;;24.73;13.13;;;;;;;0.71;67.61;102642.66;10056795;29;20076;-74
2023/01/24 22:53:35;;;;;;;24.17;13.23;;;;;;;0.78;67.45;102639.09;10057144;29;20105;-75
2023/01/24 22:58:38;;;;;;;22.67;13.70;;;;;;;0.81;67.49;102634.66;10055403;29;20053;-75
2023/01/24 23:03:42;;;;;;;25.52;13.73;;;;;;;0.84;67.63;102631.13;10057381;29;20076;-75
2023/01/24 23:08:47;;;;;;;19.38;12.48;;;;;;;0.70;67.68;102623.25;10063467;29;20049;-76
2023/01/24 23:24:51;;;;;;;25.10;13.38;;;;;;;0.61;68.10;102608.31;10060116;29;20466;-76
2023/01/24 23:30:18;;;;;;;27.95;15.60;;;;;;;0.60;68.19;102610.94;10053228;29;20133;-76
2023/01/24 23:35:22;;;;;;;23.65;14.45;;;;;;;0.63;68.39;102605.63;10055259;29;20148;-76
2023/01/24 23:40:24;;;;;;;23.25;13.57;;;;;;;0.64;68.53;102599.47;10058321;29;20226;-77
2023/01/24 23:45:27;;;;;;;24.17;14.23;;;;;;;0.61;68.51;102583.63;10055672;29;20102;-77
2023/01/24 23:50:31;;;;;;;29.20;15.85;;;;;;;0.61;68.72;102580.97;10055594;29;20041;-76
2023/01/24 23:55:34;;;;;;;29.02;15.07;;;;;;;0.63;68.97;102578.31;10055803;29;20136;-76
